Time;durP1;ratioP1;P1;durP2;ratioP2;P2;SDS_P1;SDS_P2;PMS_P1;PMS_P2;Temp;Humidity;BMP_temperature;BMP_pressure;BME280_temperature;BME280_humidity;BME280_pressure;Samples;Min_cycle;Max_cycle;Signal;HPM_P1;HPM_P2
2022/01/16 00:04:08;;;;;;;68.30;56.35;;;16.10;55.50;;;;;;4995284;27;94396;-73
2022/01/16 00:06:38;;;;;;;67.25;55.97;;;16.10;55.60;;;;;;4996904;27;95154;-73
2022/01/16 00:09:05;;;;;;;69.65;56.65;;;16.10;55.70;;;;;;4995747;27;96277;-73
2022/01/16 00:11:31;;;;;;;68.57;56.33;;;16.10;55.80;;;;;;4981913;27;96097;-73
2022/01/16 00:13:57;;;;;;;68.38;56.65;;;16.00;55.80;;;;;;5002317;27;97594;-73
2022/01/16 00:16:23;;;;;;;67.53;56.35;;;16.00;55.30;;;;;;4974078;27;96229;-73
2022/01/16 00:18:49;;;;;;;67.32;56.28;;;16.00;55.20;;;;;;4994706;27;96902;-73
2022/01/16 00:21:40;;;;;;;67.85;55.40;;;16.00;55.90;;;;;;4993214;27;95640;-74
2022/01/16 00:24:07;;;;;;;67.18;55.65;;;16.00;55.40;;;;;;4998048;27;95423;-73
2022/01/16 00:26:33;;;;;;;67.15;56.50;;;16.20;55.30;;;;;;4998527;27;96149;-73
2022/01/16 00:28:59;;;;;;;67.07;55.88;;;16.30;55.30;;;;;;4997845;27;95146;-73
2022/01/16 00:31:25;;;;;;;67.85;55.60;;;16.40;54.80;;;;;;4981829;27;96044;-73
2022/01/16 00:33:51;;;;;;;68.78;56.60;;;16.50;54.80;;;;;;4997726;27;95430;-73
2022/01/16 00:36:19;;;;;;;67.53;56.22;;;16.50;55.30;;;;;;4971715;27;98525;-73
2022/01/16 00:38:49;;;;;;;67.10;55.53;;;16.70;54.50;;;;;;5000469;27;95206;-73
2022/01/16 00:41:18;;;;;;;67.03;55.13;;;16.80;53.90;;;;;;4995290;27;95305;-73
2022/01/16 00:43:43;;;;;;;68.38;56.55;;;16.80;53.80;;;;;;4995195;27;96324;-73
2022/01/16 00:46:10;;;;;;;66.70;55.22;;;16.90;53.50;;;;;;4999130;27;100064;-73
2022/01/16 00:48:36;;;;;;;66.43;55.75;;;17.00;53.50;;;;;;5003822;27;100063;-73
2022/01/16 00:51:02;;;;;;;67.65;56.28;;;17.10;53.30;;;;;;4992420;27;95257;-72
2022/01/16 00:53:28;;;;;;;69.50;56.25;;;17.10;52.90;;;;;;4973694;28;95820;-73
2022/01/16 00:55:54;;;;;;;67.55;55.85;;;17.10;52.90;;;;;;4994053;27;95329;-73
2022/01/16 00:58:19;;;;;;;69.20;55.72;;;17.20;52.80;;;;;;4988732;27;102047;-73
2022/01/16 01:00:47;;;;;;;66.88;55.38;;;17.10;52.70;;;;;;4993730;27;100294;-73
2022/01/16 01:03:13;;;;;;;67.47;56.30;;;17.20;52.90;;;;;;5002155;27;97463;-73
2022/01/16 01:05:39;;;;;;;66.78;55.33;;;17.20;52.60;;;;;;5008895;27;96770;-72
2022/01/16 01:08:05;;;;;;;68.57;56.78;;;17.20;52.50;;;;;;5009289;27;97041;-73
2022/01/16 01:10:36;;;;;;;66.93;55.50;;;17.20;52.60;;;;;;4992498;27;96097;-73
2022/01/16 01:13:09;;;;;;;70.07;56.20;;;17.10;52.30;;;;;;5001015;27;96683;-73
2022/01/16 01:15:50;;;;;;;66.88;55.25;;;17.20;52.30;;;;;;4997317;27;96572;-73
2022/01/16 01:18:18;;;;;;;69.50;56.07;;;17.10;52.60;;;;;;4990771;27;94892;-73
2022/01/16 01:20:46;;;;;;;66.80;55.35;;;17.10;52.60;;;;;;4965594;27;96705;-73
2022/01/16 01:23:12;;;;;;;66.22;55.90;;;17.10;52.50;;;;;;5002671;27;95769;-73
2022/01/16 01:25:38;;;;;;;66.00;54.92;;;17.00;52.40;;;;;;4963241;28;97731;-73
2022/01/16 01:28:07;;;;;;;69.32;56.42;;;17.00;52.50;;;;;;4987415;27;96321;-72
2022/01/16 01:30:32;;;;;;;66.57;55.58;;;17.00;52.50;;;;;;4976222;28;95400;-73
2022/01/16 01:32:58;;;;;;;65.57;55.20;;;16.90;52.50;;;;;;4990330;28;95567;-73
2022/01/16 01:35:25;;;;;;;67.47;55.72;;;16.90;52.80;;;;;;4954864;28;96262;-72
2022/01/16 01:37:50;;;;;;;67.07;55.58;;;16.80;52.90;;;;;;4988677;28;95004;-73
2022/01/16 01:40:20;;;;;;;68.90;54.88;;;16.80;52.90;;;;;;4947404;28;100616;-73
2022/01/16 01:51:09;;;;;;;67.05;55.47;;;16.70;53.20;;;;;;4958499;28;97564;-73
2022/01/16 01:53:36;;;;;;;69.03;56.17;;;16.60;53.20;;;;;;4944522;28;96367;-73
2022/01/16 01:56:04;;;;;;;67.63;55.22;;;16.60;53.40;;;;;;4960833;28;95127;-72
2022/01/16 01:58:30;;;;;;;66.28;55.08;;;16.60;53.50;;;;;;4941614;28;99788;-73
2022/01/16 02:00:56;;;;;;;67.45;55.97;;;16.50;53.30;;;;;;4963509;28;96305;-73
2022/01/16 02:05:53;;;;;;;;;;;16.40;53.70;;;;;;4970678;28;97119;-73
2022/01/16 02:08:19;;;;;;;67.97;55.65;;;16.40;54.00;;;;;;4977902;28;94834;-72
2022/01/16 02:10:45;;;;;;;66.95;55.70;;;16.40;54.10;;;;;;4986535;28;94813;-72
2022/01/16 02:13:21;;;;;;;67.25;55.13;;;16.40;54.10;;;;;;4971255;28;96410;-74
2022/01/16 02:32:13;;;;;;;68.70;55.65;;;16.20;54.30;;;;;;4998920;27;101931;-73
2022/01/16 02:34:42;;;;;;;66.57;54.92;;;16.20;54.40;;;;;;5008988;27;94270;-72
2022/01/16 02:37:11;;;;;;;71.70;57.50;;;16.10;54.30;;;;;;4996502;27;99239;-73
2022/01/16 02:39:45;;;;;;;66.50;55.63;;;16.10;54.60;;;;;;5008670;27;96113;-73
2022/01/16 02:42:12;;;;;;;66.55;54.67;;;16.10;54.70;;;;;;5012930;27;96418;-73
2022/01/16 02:44:59;;;;;;;67.68;55.10;;;16.00;54.60;;;;;;5010577;27;95638;-73
2022/01/16 02:47:25;;;;;;;67.85;55.90;;;16.00;54.50;;;;;;5013031;27;95928;-73
2022/01/16 02:49:51;;;;;;;70.32;56.92;;;16.00;54.50;;;;;;4997625;27;95021;-73
2022/01/16 02:52:19;;;;;;;67.25;55.53;;;16.00;54.50;;;;;;4985466;27;97032;-73
2022/01/16 02:54:47;;;;;;;65.70;54.58;;;16.00;54.30;;;;;;5001648;27;96919;-73
2022/01/16 02:57:16;;;;;;;66.35;54.55;;;15.90;55.40;;;;;;5003772;27;94919;-73
2022/01/16 02:59:50;;;;;;;66.88;54.95;;;15.90;54.70;;;;;;5007148;27;94589;-73
2022/01/16 03:02:18;;;;;;;65.88;54.92;;;15.90;54.90;;;;;;5011172;27;95330;-73
2022/01/16 03:04:44;;;;;;;68.63;55.92;;;15.90;55.00;;;;;;5003175;27;96173;-73
2022/01/16 03:07:10;;;;;;;67.32;55.03;;;15.90;54.80;;;;;;5016441;27;95981;-72
2022/01/16 03:12:07;;;;;;;67.95;55.58;;;15.80;54.90;;;;;;5015742;27;94827;-73
2022/01/16 03:14:33;;;;;;;69.50;56.00;;;15.80;55.20;;;;;;4995883;27;95758;-73
2022/01/16 03:16:59;;;;;;;65.85;54.22;;;15.80;55.00;;;;;;5012043;27;99947;-73
2022/01/16 03:22:10;;;;;;;65.22;54.38;;;15.70;55.10;;;;;;5014745;27;96348;-73
2022/01/16 03:24:44;;;;;;;69.78;56.03;;;15.70;54.50;;;;;;5008466;27;95006;-72
2022/01/16 03:27:16;;;;;;;68.30;55.25;;;15.60;55.10;;;;;;4993170;27;95003;-73
2022/01/16 03:29:43;;;;;;;;;;;15.70;55.20;;;;;;5016178;27;95644;-73
2022/01/16 03:32:13;;;;;;;68.70;54.63;;;15.80;54.90;;;;;;5010510;27;96829;-73
2022/01/16 03:34:39;;;;;;;67.05;54.97;;;15.90;54.80;;;;;;5009279;27;96075;-72
2022/01/16 03:37:05;;;;;;;66.93;54.60;;;16.00;54.50;;;;;;5015045;27;95329;-71
2022/01/16 03:39:31;;;;;;;67.63;54.88;;;16.10;54.10;;;;;;4993716;27;96672;-73
2022/01/16 03:41:59;;;;;;;69.70;55.17;;;16.30;54.10;;;;;;5012740;27;95030;-73
2022/01/16 03:44:25;;;;;;;66.90;54.38;;;16.40;54.20;;;;;;5008936;27;96093;-73
2022/01/16 03:46:51;;;;;;;68.30;55.20;;;16.60;53.90;;;;;;5000796;27;96154;-72
2022/01/16 03:49:19;;;;;;;67.50;54.58;;;16.70;53.70;;;;;;5012885;27;94294;-72
2022/01/16 03:51:48;;;;;;;67.82;55.47;;;16.80;53.30;;;;;;5008439;27;95935;-73
2022/01/16 03:54:16;;;;;;;67.35;55.65;;;16.90;52.90;;;;;;5000811;27;96792;-72
2022/01/16 03:56:43;;;;;;;67.00;54.55;;;17.00;52.70;;;;;;4982087;28;96481;-72
2022/01/16 03:59:08;;;;;;;67.30;54.97;;;17.00;52.50;;;;;;5009014;27;95961;-73
2022/01/16 04:01:34;;;;;;;68.72;55.05;;;17.00;52.40;;;;;;5008845;27;95654;-73
2022/01/16 04:04:01;;;;;;;66.90;54.40;;;17.10;52.60;;;;;;5016393;27;97744;-73
2022/01/16 04:06:27;;;;;;;66.88;54.90;;;17.10;52.20;;;;;;5003602;27;95137;-72
2022/01/16 04:08:54;;;;;;;68.40;54.80;;;17.20;52.30;;;;;;5003059;27;96553;-72
2022/01/16 04:11:25;;;;;;;64.05;53.67;;;17.20;52.00;;;;;;4997581;27;96619;-73
2022/01/16 04:13:53;;;;;;;66.13;54.35;;;17.20;51.90;;;;;;5013395;27;94440;-73
2022/01/16 04:16:22;;;;;;;66.43;53.97;;;17.20;51.80;;;;;;5006319;27;96237;-72
2022/01/16 04:18:50;;;;;;;66.68;54.30;;;17.20;51.80;;;;;;5008032;27;95262;-73
2022/01/16 04:21:18;;;;;;;67.03;53.75;;;17.20;51.50;;;;;;5009952;27;97681;-74
2022/01/16 04:23:43;;;;;;;67.13;54.65;;;17.20;51.60;;;;;;5003571;27;95469;-73
2022/01/16 04:26:09;;;;;;;66.97;53.80;;;17.10;51.70;;;;;;4998170;27;95550;-73
2022/01/16 04:28:34;;;;;;;67.68;54.53;;;17.10;51.80;;;;;;4987125;27;97951;-73
2022/01/16 04:31:01;;;;;;;68.15;53.95;;;17.10;52.00;;;;;;4993797;27;96587;-73
2022/01/16 04:33:26;;;;;;;66.40;54.25;;;17.10;51.60;;;;;;5008756;27;95862;-72
2022/01/16 04:35:52;;;;;;;65.57;54.22;;;17.10;51.70;;;;;;5005557;27;99546;-72
2022/01/16 04:38:17;;;;;;;66.95;54.05;;;17.20;51.80;;;;;;5017464;27;95703;-72
2022/01/16 04:43:47;;;;;;;65.93;53.53;;;17.10;51.50;;;;;;5013473;27;94981;-72
2022/01/16 04:43:47;;;;;;;66.22;53.80;;;17.10;51.60;;;;;;5011809;27;94537;-73
2022/01/16 04:46:14;;;;;;;65.07;53.58;;;17.10;51.80;;;;;;4998546;27;97233;-72
2022/01/16 04:48:39;;;;;;;64.93;53.30;;;17.00;51.60;;;;;;4984009;27;95355;-72
2022/01/16 04:51:05;;;;;;;66.50;54.00;;;17.00;51.90;;;;;;4971754;27;98157;-73
2022/01/16 04:53:30;;;;;;;66.32;53.38;;;17.00;51.80;;;;;;4978562;27;97385;-72
2022/01/16 04:55:56;;;;;;;67.28;53.90;;;17.00;51.80;;;;;;4974165;27;95818;-73
2022/01/16 04:58:22;;;;;;;65.55;53.42;;;16.90;51.80;;;;;;4982735;27;97252;-72
2022/01/16 05:00:48;;;;;;;66.57;53.65;;;16.90;51.80;;;;;;5004589;27;96477;-72
2022/01/16 05:03:14;;;;;;;67.13;54.70;;;16.90;51.80;;;;;;5016011;27;93856;-72
2022/01/16 05:05:39;;;;;;;65.60;53.85;;;16.90;52.10;;;;;;5010164;27;94765;-72
2022/01/16 05:08:05;;;;;;;66.20;53.72;;;16.90;51.90;;;;;;5015144;27;95908;-72
2022/01/16 05:10:32;;;;;;;65.97;53.42;;;16.80;51.90;;;;;;5001794;27;97368;-72
2022/01/16 05:13:15;;;;;;;65.97;53.55;;;16.80;52.00;;;;;;5004853;27;96890;-73
2022/01/16 05:18:25;;;;;;;67.85;53.92;;;16.80;52.60;;;;;;5014357;27;99082;-73
2022/01/16 05:20:51;;;;;;;67.38;54.40;;;16.80;52.10;;;;;;4998915;27;95973;-73
2022/01/16 05:23:16;;;;;;;66.38;54.25;;;16.70;52.50;;;;;;5011847;27;94956;-72
2022/01/16 05:25:59;;;;;;;67.37;52.61;;;16.70;52.30;;;;;;4406277;27;10001867;-73
2022/01/16 05:28:24;;;;;;;68.55;55.22;;;16.60;53.00;;;;;;1342639;28;10099886;-72
2022/01/16 05:30:50;;;;;;;67.32;54.25;;;16.70;52.90;;;;;;5002303;27;95694;-73
2022/01/16 05:33:16;;;;;;;68.40;54.35;;;16.80;53.80;;;;;;4999458;27;100421;-73
2022/01/16 05:35:42;;;;;;;66.53;53.15;;;16.90;52.80;;;;;;4982044;27;98145;-72
2022/01/16 05:38:08;;;;;;;66.97;53.72;;;17.00;52.50;;;;;;4989361;27;96638;-72
2022/01/16 05:40:34;;;;;;;66.75;53.28;;;17.10;52.40;;;;;;5012972;27;95006;-72
2022/01/16 05:43:01;;;;;;;65.63;53.13;;;17.30;52.40;;;;;;5006995;27;95722;-73
2022/01/16 05:45:27;;;;;;;66.63;53.40;;;17.40;52.10;;;;;;5007592;27;96442;-72
2022/01/16 05:47:53;;;;;;;66.45;53.53;;;17.50;52.20;;;;;;5013503;27;95707;-73
2022/01/16 05:50:19;;;;;;;67.50;53.55;;;17.60;51.80;;;;;;5004954;27;95098;-70
2022/01/16 05:52:45;;;;;;;67.93;53.85;;;17.80;51.60;;;;;;5009317;27;97630;-73
2022/01/16 05:55:11;;;;;;;67.05;53.38;;;17.90;51.40;;;;;;5010256;27;95722;-73
2022/01/16 05:57:37;;;;;;;67.20;54.03;;;18.00;51.30;;;;;;4993537;27;95447;-72
2022/01/16 06:00:05;;;;;;;66.15;52.75;;;18.10;51.30;;;;;;5006729;27;96266;-72
2022/01/16 06:02:30;;;;;;;65.68;53.17;;;18.20;50.70;;;;;;5001152;27;96731;-72
2022/01/16 06:04:56;;;;;;;66.45;53.47;;;18.30;50.70;;;;;;4990707;27;95836;-72
2022/01/16 06:07:22;;;;;;;65.63;52.78;;;18.40;50.60;;;;;;5013946;27;94988;-72
2022/01/16 06:09:47;;;;;;;66.60;53.38;;;18.30;50.20;;;;;;5010776;27;95112;-72
2022/01/16 06:12:13;;;;;;;66.32;53.40;;;18.40;50.40;;;;;;5010672;27;95101;-72
2022/01/16 06:14:39;;;;;;;66.72;52.75;;;18.50;50.40;;;;;;5003188;27;96472;-72
2022/01/16 06:17:04;;;;;;;66.15;53.00;;;18.50;50.30;;;;;;5002804;27;95787;-72
2022/01/16 06:19:30;;;;;;;66.93;53.58;;;18.50;49.90;;;;;;5001925;27;94967;-72
2022/01/16 06:21:56;;;;;;;66.43;53.47;;;18.60;50.20;;;;;;5009483;27;96344;-72
2022/01/16 06:24:22;;;;;;;66.28;53.22;;;18.50;49.80;;;;;;5009910;27;95911;-72
2022/01/16 06:26:51;;;;;;;65.55;52.83;;;18.50;49.80;;;;;;4996150;27;95312;-72
2022/01/16 06:29:18;;;;;;;66.00;53.03;;;18.50;49.90;;;;;;4994063;27;96750;-72
2022/01/16 06:31:43;;;;;;;65.93;52.95;;;18.60;50.00;;;;;;4995175;27;97901;-71
2022/01/16 06:34:09;;;;;;;66.22;53.45;;;18.50;49.80;;;;;;5012237;27;95102;-72
2022/01/16 06:36:36;;;;;;;65.60;53.20;;;18.50;49.80;;;;;;5006517;27;96951;-72
2022/01/16 06:39:07;;;;;;;66.60;52.97;;;18.50;49.90;;;;;;5007642;27;98253;-72
2022/01/16 06:41:33;;;;;;;67.13;53.80;;;18.50;49.80;;;;;;5009848;27;94584;-72
2022/01/16 06:43:59;;;;;;;66.72;53.50;;;18.40;49.90;;;;;;5009222;27;95752;-72
2022/01/16 06:46:25;;;;;;;67.18;52.78;;;18.40;49.80;;;;;;5006759;27;95813;-72
2022/01/16 06:48:51;;;;;;;64.93;52.63;;;18.30;49.90;;;;;;5008251;27;96076;-72
2022/01/16 06:51:19;;;;;;;67.93;53.63;;;18.30;50.00;;;;;;5000900;27;99479;-72
2022/01/16 06:53:49;;;;;;;65.40;53.17;;;18.30;50.00;;;;;;4987634;27;97542;-72
2022/01/16 06:56:16;;;;;;;67.53;53.05;;;18.30;49.90;;;;;;5008351;27;95990;-70
2022/01/16 06:58:42;;;;;;;65.32;53.03;;;18.20;49.70;;;;;;4986085;27;100821;-70
2022/01/16 07:01:08;;;;;;;66.82;53.15;;;18.20;50.00;;;;;;5000354;27;95862;-72
2022/01/16 07:03:34;;;;;;;66.00;53.05;;;18.20;50.10;;;;;;5005096;27;96113;-72
2022/01/16 07:06:00;;;;;;;67.30;53.35;;;18.10;50.10;;;;;;5000324;27;95549;-70
2022/01/16 07:08:27;;;;;;;66.32;53.25;;;18.10;50.10;;;;;;4997810;27;94637;-72
2022/01/16 07:10:54;;;;;;;65.90;53.17;;;18.00;50.10;;;;;;5008582;27;98406;-70
2022/01/16 07:13:21;;;;;;;67.75;53.45;;;18.00;50.20;;;;;;5009660;27;96508;-74
2022/01/16 07:15:48;;;;;;;68.50;54.35;;;18.00;50.10;;;;;;4999156;27;95058;-73
2022/01/16 07:18:14;;;;;;;65.05;52.47;;;18.00;50.40;;;;;;5005799;27;96493;-73
2022/01/16 07:20:40;;;;;;;65.68;52.92;;;17.90;50.40;;;;;;5002075;27;95624;-74
2022/01/16 07:23:06;;;;;;;66.88;53.22;;;17.90;50.40;;;;;;5007282;27;94845;-73
2022/01/16 07:25:31;;;;;;;64.05;52.47;;;17.90;50.30;;;;;;5015645;27;101399;-73
2022/01/16 07:27:57;;;;;;;66.40;53.33;;;17.80;50.50;;;;;;4995218;27;95952;-72
2022/01/16 07:30:24;;;;;;;66.25;52.60;;;17.80;50.30;;;;;;5009767;27;95030;-73
2022/01/16 07:32:50;;;;;;;69.68;53.75;;;17.80;50.70;;;;;;5006870;27;94883;-72
2022/01/16 07:35:15;;;;;;;67.15;53.63;;;17.80;51.20;;;;;;4989379;27;96826;-71
2022/01/16 07:37:41;;;;;;;64.50;52.60;;;17.70;50.80;;;;;;5003151;27;96014;-71
2022/01/16 07:40:10;;;;;;;65.93;53.15;;;17.80;50.80;;;;;;4989749;28;96157;-70
2022/01/16 07:42:36;;;;;;;65.53;53.10;;;17.80;50.70;;;;;;5012705;27;94962;-72
2022/01/16 07:45:02;;;;;;;67.05;52.85;;;17.90;51.20;;;;;;4999586;28;96082;-72
2022/01/16 07:47:28;;;;;;;66.30;52.75;;;17.90;50.40;;;;;;5008303;27;96618;-73
2022/01/16 07:49:53;;;;;;;64.55;52.30;;;18.00;50.50;;;;;;5014065;27;94678;-73
2022/01/16 07:52:19;;;;;;;65.50;52.75;;;18.00;50.60;;;;;;5010040;27;96501;-73
2022/01/16 07:54:45;;;;;;;66.25;52.83;;;18.00;50.60;;;;;;4994584;28;95010;-68
2022/01/16 07:57:10;;;;;;;67.68;52.83;;;18.10;50.10;;;;;;4989111;27;95759;-71
2022/01/16 07:59:36;;;;;;;65.07;52.42;;;18.00;50.10;;;;;;5007997;27;96756;-71
2022/01/16 08:02:03;;;;;;;65.53;52.78;;;18.00;50.20;;;;;;4991639;27;96309;-72
2022/01/16 08:04:28;;;;;;;66.47;53.00;;;18.10;50.30;;;;;;4988566;27;100009;-72
2022/01/16 08:06:54;;;;;;;64.88;52.10;;;18.10;50.00;;;;;;5011807;27;95472;-72
2022/01/16 08:09:20;;;;;;;65.53;53.13;;;18.10;49.80;;;;;;5007718;27;96391;-73
2022/01/16 08:11:45;;;;;;;63.80;52.13;;;18.00;49.90;;;;;;5009536;27;95800;-74
2022/01/16 08:14:11;;;;;;;65.45;53.13;;;18.10;50.10;;;;;;5011240;27;95026;-73
2022/01/16 08:16:37;;;;;;;64.53;52.42;;;18.00;50.00;;;;;;5005911;27;99359;-73
2022/01/16 08:19:02;;;;;;;63.95;51.95;;;18.00;50.20;;;;;;4998203;27;95484;-73
2022/01/16 08:21:28;;;;;;;64.47;52.63;;;17.90;50.60;;;;;;5006838;27;95783;-73
2022/01/16 08:23:53;;;;;;;65.72;53.25;;;17.90;50.20;;;;;;5004039;27;103101;-73
2022/01/16 08:26:19;;;;;;;67.75;54.17;;;17.90;50.40;;;;;;5014744;27;97056;-73
2022/01/16 08:28:45;;;;;;;66.50;53.45;;;17.80;49.80;;;;;;5005549;27;96634;-73
2022/01/16 08:31:10;;;;;;;65.78;53.17;;;17.70;50.10;;;;;;5004262;27;96341;-72
2022/01/16 08:33:36;;;;;;;67.40;54.25;;;17.80;49.90;;;;;;4998647;27;95762;-72
2022/01/16 08:36:02;;;;;;;67.72;54.60;;;17.80;49.60;;;;;;4992487;28;95662;-72
2022/01/16 08:38:27;;;;;;;66.00;53.60;;;17.90;49.80;;;;;;5011455;27;95037;-73
2022/01/16 08:40:53;;;;;;;67.30;54.88;;;17.90;49.70;;;;;;5007501;27;94689;-73
2022/01/16 08:43:19;;;;;;;65.80;52.92;;;18.00;49.50;;;;;;4994778;27;94398;-73
2022/01/16 08:45:45;;;;;;;66.47;54.25;;;18.00;49.50;;;;;;4993799;27;94762;-70
2022/01/16 08:48:11;;;;;;;65.13;53.55;;;18.00;49.20;;;;;;5000787;27;95024;-70
2022/01/16 08:50:38;;;;;;;66.90;53.53;;;18.10;49.00;;;;;;4988468;27;96008;-70
2022/01/16 08:53:04;;;;;;;67.00;53.88;;;18.10;49.00;;;;;;5007197;27;95997;-71
2022/01/16 08:55:29;;;;;;;65.63;53.65;;;18.10;48.80;;;;;;5010346;27;97282;-71
2022/01/16 08:57:59;;;;;;;65.97;53.92;;;18.20;48.70;;;;;;4979889;28;96147;-71
2022/01/16 09:00:25;;;;;;;67.30;54.42;;;18.20;48.50;;;;;;5001461;27;98394;-70
2022/01/16 09:02:51;;;;;;;66.53;54.22;;;18.20;48.50;;;;;;4996665;27;97069;-70
2022/01/16 09:05:16;;;;;;;66.93;54.10;;;18.20;48.40;;;;;;5010398;27;95023;-70
2022/01/16 09:07:42;;;;;;;68.35;54.45;;;18.20;48.30;;;;;;5011750;27;95539;-72
2022/01/16 09:10:09;;;;;;;66.68;54.58;;;18.20;48.30;;;;;;5010282;27;100727;-70
2022/01/16 09:12:35;;;;;;;68.85;54.97;;;18.20;48.50;;;;;;4991351;28;94642;-70
2022/01/16 09:15:06;;;;;;;67.53;54.40;;;18.10;48.10;;;;;;5008300;27;96040;-72
2022/01/16 09:17:32;;;;;;;67.15;54.30;;;18.10;48.20;;;;;;5000711;27;102912;-73
2022/01/16 09:19:58;;;;;;;67.38;54.63;;;18.00;48.30;;;;;;4978515;27;98394;-73
2022/01/16 09:22:24;;;;;;;67.47;55.05;;;18.00;48.20;;;;;;4993146;28;95803;-73
2022/01/16 09:24:49;;;;;;;66.18;53.88;;;18.00;48.30;;;;;;4997262;27;97428;-73
2022/01/16 09:27:16;;;;;;;67.13;54.13;;;17.90;48.30;;;;;;5002368;27;96841;-73
2022/01/16 09:29:42;;;;;;;66.90;54.92;;;17.90;48.60;;;;;;5005436;27;95467;-73
2022/01/16 09:32:08;;;;;;;65.57;54.15;;;17.80;48.80;;;;;;5009148;27;94220;-70
2022/01/16 09:34:33;;;;;;;67.68;54.67;;;17.70;48.50;;;;;;5013639;27;95049;-65
2022/01/16 09:37:02;;;;;;;66.15;54.17;;;17.70;48.90;;;;;;4987883;27;96559;-71
2022/01/16 09:39:27;;;;;;;69.57;55.45;;;17.70;48.70;;;;;;5008155;27;95593;-70
2022/01/16 09:41:54;;;;;;;66.25;54.25;;;17.70;49.10;;;;;;5008172;27;95308;-69
2022/01/16 09:44:19;;;;;;;67.50;54.97;;;17.80;48.80;;;;;;4989119;27;95583;-71
2022/01/16 09:46:45;;;;;;;66.35;54.22;;;17.80;48.70;;;;;;5010237;27;95389;-73
2022/01/16 09:49:11;;;;;;;67.18;54.90;;;17.90;48.60;;;;;;5003721;27;95953;-71
2022/01/16 09:51:37;;;;;;;67.20;54.45;;;18.00;49.00;;;;;;4975260;27;96123;-70
2022/01/16 09:54:05;;;;;;;68.07;54.83;;;18.00;48.60;;;;;;5002407;27;95501;-71
2022/01/16 09:56:30;;;;;;;69.22;53.97;;;18.10;48.50;;;;;;5005506;27;95128;-69
2022/01/16 09:58:56;;;;;;;66.03;53.55;;;18.10;48.50;;;;;;5002802;27;96324;-71
2022/01/16 10:01:22;;;;;;;66.82;53.63;;;18.10;48.20;;;;;;4980556;27;98623;-69
2022/01/16 10:03:48;;;;;;;66.40;54.22;;;18.20;48.60;;;;;;5016461;27;98329;-70
2022/01/16 10:06:22;;;;;;;65.47;53.55;;;18.20;48.20;;;;;;5015864;27;96678;-71
2022/01/16 10:08:52;;;;;;;65.95;53.55;;;18.20;48.20;;;;;;5005496;27;103839;-72
2022/01/16 10:11:36;;;;;;;65.00;53.22;;;18.20;48.00;;;;;;4616713;27;10001035;-74
2022/01/16 10:14:22;;;;;;;64.53;52.78;;;18.20;48.20;;;;;;1346036;27;10099128;-72
2022/01/16 10:16:49;;;;;;;66.22;53.63;;;18.20;48.20;;;;;;5004822;27;95141;-71
2022/01/16 10:19:23;;;;;;;64.20;52.97;;;18.20;48.10;;;;;;4991834;27;95088;-72
2022/01/16 10:21:49;;;;;;;66.40;53.45;;;18.20;48.10;;;;;;4981369;28;97381;-72
2022/01/16 10:24:16;;;;;;;64.70;52.85;;;18.20;48.10;;;;;;5008072;27;98146;-72
2022/01/16 10:26:42;;;;;;;64.22;53.13;;;18.20;48.20;;;;;;5005151;27;97162;-72
2022/01/16 10:29:17;;;;;;;66.57;53.83;;;18.10;48.30;;;;;;4997366;27;96004;-73
2022/01/16 10:31:43;;;;;;;65.65;53.40;;;18.10;48.20;;;;;;4991975;28;96542;-71
2022/01/16 10:34:29;;;;;;;65.43;52.95;;;18.10;48.50;;;;;;4983145;28;95114;-72
2022/01/16 10:36:55;;;;;;;65.18;53.28;;;18.00;48.70;;;;;;4980170;28;100190;-72
2022/01/16 10:39:20;;;;;;;64.88;52.63;;;18.00;49.10;;;;;;4986311;28;96161;-73
2022/01/16 10:42:14;;;;;;;64.93;53.30;;;18.10;49.00;;;;;;4984074;28;96338;-72
2022/01/16 10:44:39;;;;;;;64.68;52.70;;;18.10;49.00;;;;;;4985012;28;96308;-72
2022/01/16 10:47:27;;;;;;;64.57;52.58;;;18.10;48.80;;;;;;4983210;28;95303;-72
2022/01/16 10:50:09;;;;;;;65.68;53.30;;;18.20;48.80;;;;;;4989753;28;95485;-72
2022/01/16 10:52:52;;;;;;;64.30;52.95;;;18.30;49.10;;;;;;4985152;28;97413;-72
2022/01/16 10:55:19;;;;;;;64.65;52.45;;;18.40;48.60;;;;;;4984442;28;96549;-72
2022/01/16 10:57:45;;;;;;;63.92;52.15;;;18.50;48.30;;;;;;4996844;28;95759;-72
2022/01/16 11:00:19;;;;;;;65.47;52.97;;;18.50;48.30;;;;;;4989889;28;95174;-72
2022/01/16 11:02:47;;;;;;;63.92;52.22;;;18.50;48.30;;;;;;4991539;28;94961;-72
2022/01/16 11:05:21;;;;;;;64.32;52.22;;;18.50;48.60;;;;;;4991488;28;95679;-72
2022/01/16 11:07:59;;;;;;;64.28;52.75;;;18.60;48.30;;;;;;4985169;28;95252;-71
2022/01/16 11:10:32;;;;;;;64.85;52.85;;;18.60;48.40;;;;;;4967268;28;95331;-71
2022/01/16 11:13:09;;;;;;;64.68;52.72;;;18.70;48.10;;;;;;4989711;28;94289;-71
2022/01/16 11:15:38;;;;;;;65.32;52.60;;;18.70;47.90;;;;;;4989581;28;96956;-71
2022/01/16 11:18:06;;;;;;;64.07;52.30;;;18.70;48.00;;;;;;4975248;28;95567;-71
2022/01/16 11:20:35;;;;;;;67.57;52.88;;;18.70;48.00;;;;;;4988955;28;98103;-72
2022/01/16 11:23:06;;;;;;;66.03;53.10;;;18.70;47.80;;;;;;4992160;28;95276;-71
2022/01/16 11:25:38;;;;;;;64.95;52.55;;;18.70;47.80;;;;;;4987022;28;95906;-71
2022/01/16 11:28:09;;;;;;;63.53;51.78;;;18.70;47.70;;;;;;4987392;28;95523;-71
2022/01/16 11:30:39;;;;;;;65.32;52.67;;;18.60;47.80;;;;;;5003015;27;100920;-70
2022/01/16 11:33:05;;;;;;;65.57;52.65;;;18.60;47.70;;;;;;5009283;27;95770;-71
2022/01/16 11:35:32;;;;;;;66.28;51.97;;;18.60;47.80;;;;;;5007081;27;100592;-71
2022/01/16 11:37:59;;;;;;;64.70;52.65;;;18.50;47.90;;;;;;5005642;27;95220;-71
2022/01/16 11:40:45;;;;;;;65.63;52.08;;;18.40;47.80;;;;;;4991823;27;96186;-71
2022/01/16 11:43:23;;;;;;;64.18;52.53;;;18.40;48.00;;;;;;5013005;27;97132;-71
2022/01/16 11:46:15;;;;;;;64.13;52.30;;;18.40;48.10;;;;;;4992543;27;96426;-71
2022/01/16 11:48:49;;;;;;;63.80;51.75;;;18.40;48.30;;;;;;5005882;27;101109;-71
2022/01/16 11:51:36;;;;;;;64.78;52.50;;;18.30;48.30;;;;;;5011334;27;94844;-71
2022/01/16 11:54:02;;;;;;;66.43;52.90;;;18.30;48.30;;;;;;5012222;27;95624;-71
2022/01/16 11:56:39;;;;;;;66.43;52.75;;;18.20;48.40;;;;;;5009579;27;95656;-71
2022/01/16 11:59:14;;;;;;;65.22;52.63;;;18.20;48.60;;;;;;5015780;27;95386;-71
2022/01/16 12:01:52;;;;;;;65.28;52.05;;;18.20;48.50;;;;;;5010236;27;94873;-71
2022/01/16 12:04:30;;;;;;;65.68;53.03;;;18.20;48.40;;;;;;5015954;27;97412;-71
2022/01/16 12:06:58;;;;;;;66.32;52.45;;;18.20;48.80;;;;;;5008414;27;96448;-71
2022/01/16 12:12:22;;;;;;;65.22;52.45;;;18.20;48.50;;;;;;5010158;27;96025;-71
2022/01/16 12:14:55;;;;;;;64.25;52.28;;;18.20;48.70;;;;;;5006405;27;94833;-71
2022/01/16 12:17:44;;;;;;;65.10;52.33;;;18.20;48.50;;;;;;5012888;27;95406;-71
2022/01/16 12:20:22;;;;;;;64.85;52.72;;;18.30;48.40;;;;;;5011348;27;96829;-71
2022/01/16 12:22:54;;;;;;;63.45;51.63;;;18.20;48.20;;;;;;5004226;27;95153;-71
2022/01/16 12:25:28;;;;;;;66.70;52.65;;;18.20;48.40;;;;;;5003381;27;96702;-71
2022/01/16 12:28:01;;;;;;;64.82;52.55;;;18.20;48.50;;;;;;5010643;27;95794;-69
2022/01/16 12:30:33;;;;;;;65.28;52.63;;;18.20;48.60;;;;;;4992828;28;94785;-69
2022/01/16 12:33:11;;;;;;;65.85;52.63;;;18.30;48.80;;;;;;4990698;27;96346;-69
2022/01/16 12:35:44;;;;;;;65.28;52.45;;;18.30;48.60;;;;;;4988319;28;98482;-71
2022/01/16 12:38:15;;;;;;;66.55;52.65;;;18.30;48.50;;;;;;4993594;27;95754;-70
2022/01/16 12:40:44;;;;;;;65.65;52.33;;;18.40;48.50;;;;;;5007246;27;96567;-69
2022/01/16 12:43:32;;;;;;;65.15;52.67;;;18.50;48.70;;;;;;4993137;28;95703;-70
2022/01/16 12:46:03;;;;;;;64.55;52.25;;;18.60;48.40;;;;;;5003174;27;96128;-71
2022/01/16 12:48:45;;;;;;;64.80;51.95;;;18.60;48.20;;;;;;3663721;27;10120769;-71
2022/01/16 12:51:13;;;;;;;66.68;52.90;;;18.70;48.00;;;;;;2392841;27;10097862;-71
2022/01/16 12:53:59;;;;;;;65.88;52.53;;;18.80;47.70;;;;;;5008827;27;95837;-71
2022/01/16 12:56:46;;;;;;;64.93;52.42;;;18.90;47.90;;;;;;5001971;27;95063;-71
2022/01/16 12:59:35;;;;;;;65.72;52.53;;;18.90;47.60;;;;;;5013515;27;95365;-71
2022/01/16 13:02:04;;;;;;;63.90;52.10;;;18.90;47.70;;;;;;4989558;27;96433;-70
2022/01/16 13:04:33;;;;;;;64.30;52.00;;;19.00;47.60;;;;;;4993278;28;96831;-72
2022/01/16 13:07:02;;;;;;;65.65;52.25;;;18.90;47.50;;;;;;4998112;27;95155;-72
2022/01/16 13:09:28;;;;;;;64.85;52.17;;;18.90;47.40;;;;;;5009239;27;96562;-73
2022/01/16 13:12:00;;;;;;;66.03;52.67;;;19.00;47.50;;;;;;5003038;27;95054;-71
2022/01/16 13:14:37;;;;;;;65.18;52.28;;;19.00;47.60;;;;;;4991338;27;96588;-72